sensor_id;sensor_type;location;lat;lon;timestamp;temperature;humidity
5940;DHT22;2995;-31.998;115.906;2023-08-20T00:01:37;9.70;99.90
5940;DHT22;2995;-31.998;115.906;2023-08-20T00:04:09;9.70;99.90
5940;DHT22;2995;-31.998;115.906;2023-08-20T00:06:41;9.70;99.90
5940;DHT22;2995;-31.998;115.906;2023-08-20T00:09:14;9.90;99.90
5940;DHT22;2995;-31.998;115.906;2023-08-20T00:11:45;10.20;99.90
5940;DHT22;2995;-31.998;115.906;2023-08-20T00:14:17;10.20;99.90
5940;DHT22;2995;-31.998;115.906;2023-08-20T00:16:51;10.20;99.90
5940;DHT22;2995;-31.998;115.906;2023-08-20T00:19:22;10.30;99.90
5940;DHT22;2995;-31.998;115.906;2023-08-20T00:21:54;10.30;99.90
5940;DHT22;2995;-31.998;115.906;2023-08-20T00:24:26;10.40;99.90
5940;DHT22;2995;-31.998;115.906;2023-08-20T00:26:57;10.40;99.90
5940;DHT22;2995;-31.998;115.906;2023-08-20T00:29:28;10.60;99.90
5940;DHT22;2995;-31.998;115.906;2023-08-20T00:32:01;10.80;99.90
5940;DHT22;2995;-31.998;115.906;2023-08-20T00:34:32;10.90;99.90
5940;DHT22;2995;-31.998;115.906;2023-08-20T00:37:04;11.00;99.90
5940;DHT22;2995;-31.998;115.906;2023-08-20T00:39:35;11.20;99.90
5940;DHT22;2995;-31.998;115.906;2023-08-20T00:42:06;11.20;99.90
5940;DHT22;2995;-31.998;115.906;2023-08-20T00:44:39;11.30;99.90
5940;DHT22;2995;-31.998;115.906;2023-08-20T00:47:14;11.30;99.90
5940;DHT22;2995;-31.998;115.906;2023-08-20T00:49:46;11.40;99.90
5940;DHT22;2995;-31.998;115.906;2023-08-20T00:52:18;11.50;99.90
5940;DHT22;2995;-31.998;115.906;2023-08-20T00:54:50;11.50;99.90
5940;DHT22;2995;-31.998;115.906;2023-08-20T00:57:21;11.60;99.90
5940;DHT22;2995;-31.998;115.906;2023-08-20T00:59:56;11.80;99.90
5940;DHT22;2995;-31.998;115.906;2023-08-20T01:02:29;11.90;99.90
5940;DHT22;2995;-31.998;115.906;2023-08-20T01:05:01;12.10;99.90
5940;DHT22;2995;-31.998;115.906;2023-08-20T01:07:49;12.20;99.90
5940;DHT22;2995;-31.998;115.906;2023-08-20T01:10:29;12.30;99.90
5940;DHT22;2995;-31.998;115.906;2023-08-20T01:13:01;12.50;99.90
5940;DHT22;2995;-31.998;115.906;2023-08-20T01:15:33;12.60;99.90
5940;DHT22;2995;-31.998;115.906;2023-08-20T01:18:06;12.70;99.90
5940;DHT22;2995;-31.998;115.906;2023-08-20T01:20:41;12.90;99.90
5940;DHT22;2995;-31.998;115.906;2023-08-20T01:23:43;13.10;99.90
5940;DHT22;2995;-31.998;115.906;2023-08-20T01:26:49;13.20;99.90
5940;DHT22;2995;-31.998;115.906;2023-08-20T01:29:28;13.40;99.90
5940;DHT22;2995;-31.998;115.906;2023-08-20T01:32:00;13.50;99.90
5940;DHT22;2995;-31.998;115.906;2023-08-20T01:34:31;13.70;99.90
5940;DHT22;2995;-31.998;115.906;2023-08-20T01:37:03;13.90;99.90
5940;DHT22;2995;-31.998;115.906;2023-08-20T01:39:34;14.20;99.90
5940;DHT22;2995;-31.998;115.906;2023-08-20T01:42:06;14.30;99.90
5940;DHT22;2995;-31.998;115.906;2023-08-20T01:44:39;14.40;99.90
5940;DHT22;2995;-31.998;115.906;2023-08-20T01:47:10;14.50;99.90
5940;DHT22;2995;-31.998;115.906;2023-08-20T01:49:42;14.50;99.90
5940;DHT22;2995;-31.998;115.906;2023-08-20T01:52:13;14.60;99.90
5940;DHT22;2995;-31.998;115.906;2023-08-20T01:54:44;14.60;99.90
5940;DHT22;2995;-31.998;115.906;2023-08-20T01:57:16;14.70;99.90
5940;DHT22;2995;-31.998;115.906;2023-08-20T01:59:49;14.80;99.90
5940;DHT22;2995;-31.998;115.906;2023-08-20T02:02:20;14.90;99.90
5940;DHT22;2995;-31.998;115.906;2023-08-20T02:04:51;15.00;99.90
5940;DHT22;2995;-31.998;115.906;2023-08-20T02:07:23;15.10;99.90
5940;DHT22;2995;-31.998;115.906;2023-08-20T02:09:57;15.20;99.90
5940;DHT22;2995;-31.998;115.906;2023-08-20T02:12:29;15.40;99.90
5940;DHT22;2995;-31.998;115.906;2023-08-20T02:15:02;15.40;99.90
5940;DHT22;2995;-31.998;115.906;2023-08-20T02:17:35;15.60;99.90
5940;DHT22;2995;-31.998;115.906;2023-08-20T02:20:07;15.70;99.90
5940;DHT22;2995;-31.998;115.906;2023-08-20T02:22:39;15.80;99.90
5940;DHT22;2995;-31.998;115.906;2023-08-20T02:25:11;15.90;99.90
5940;DHT22;2995;-31.998;115.906;2023-08-20T02:27:42;16.10;99.90
5940;DHT22;2995;-31.998;115.906;2023-08-20T02:30:16;16.20;99.90
5940;DHT22;2995;-31.998;115.906;2023-08-20T02:32:47;16.20;99.90
5940;DHT22;2995;-31.998;115.906;2023-08-20T02:35:18;16.40;99.90
5940;DHT22;2995;-31.998;115.906;2023-08-20T02:37:49;16.60;99.90
5940;DHT22;2995;-31.998;115.906;2023-08-20T02:40:21;16.70;99.90
5940;DHT22;2995;-31.998;115.906;2023-08-20T02:42:52;16.90;99.90
5940;DHT22;2995;-31.998;115.906;2023-08-20T02:45:25;16.90;99.90
5940;DHT22;2995;-31.998;115.906;2023-08-20T02:47:56;16.80;99.90
5940;DHT22;2995;-31.998;115.906;2023-08-20T02:50:27;16.90;99.90
5940;DHT22;2995;-31.998;115.906;2023-08-20T02:52:59;17.10;99.90
5940;DHT22;2995;-31.998;115.906;2023-08-20T02:55:31;17.20;99.90
5940;DHT22;2995;-31.998;115.906;2023-08-20T02:58:03;17.10;99.90
5940;DHT22;2995;-31.998;115.906;2023-08-20T03:00:37;17.10;99.90
5940;DHT22;2995;-31.998;115.906;2023-08-20T03:03:08;17.20;99.90
5940;DHT22;2995;-31.998;115.906;2023-08-20T03:05:41;17.50;99.90
5940;DHT22;2995;-31.998;115.906;2023-08-20T03:08:12;17.90;99.90
5940;DHT22;2995;-31.998;115.906;2023-08-20T03:10:43;18.10;99.90
5940;DHT22;2995;-31.998;115.906;2023-08-20T03:13:14;18.30;99.90
5940;DHT22;2995;-31.998;115.906;2023-08-20T03:15:47;18.30;99.90
5940;DHT22;2995;-31.998;115.906;2023-08-20T03:18:19;18.30;99.90
5940;DHT22;2995;-31.998;115.906;2023-08-20T03:20:51;18.30;99.90
5940;DHT22;2995;-31.998;115.906;2023-08-20T03:23:23;18.20;99.90
5940;DHT22;2995;-31.998;115.906;2023-08-20T03:25:56;18.10;99.90
5940;DHT22;2995;-31.998;115.906;2023-08-20T03:28:28;18.10;99.90
5940;DHT22;2995;-31.998;115.906;2023-08-20T03:31:03;18.20;99.90
5940;DHT22;2995;-31.998;115.906;2023-08-20T03:33:34;18.20;99.90
5940;DHT22;2995;-31.998;115.906;2023-08-20T03:36:05;18.20;99.90
5940;DHT22;2995;-31.998;115.906;2023-08-20T03:38:37;18.30;99.90
5940;DHT22;2995;-31.998;115.906;2023-08-20T03:41:08;18.30;99.90
5940;DHT22;2995;-31.998;115.906;2023-08-20T03:43:40;18.40;99.90
5940;DHT22;2995;-31.998;115.906;2023-08-20T03:46:13;18.40;99.90
5940;DHT22;2995;-31.998;115.906;2023-08-20T03:48:44;18.40;99.90
5940;DHT22;2995;-31.998;115.906;2023-08-20T03:51:16;18.40;99.90
5940;DHT22;2995;-31.998;115.906;2023-08-20T03:53:47;18.20;99.90
5940;DHT22;2995;-31.998;115.906;2023-08-20T03:56:18;18.20;99.90
5940;DHT22;2995;-31.998;115.906;2023-08-20T03:58:49;18.30;99.90
5940;DHT22;2995;-31.998;115.906;2023-08-20T04:01:23;18.50;99.90
5940;DHT22;2995;-31.998;115.906;2023-08-20T04:03:54;18.70;99.90
5940;DHT22;2995;-31.998;115.906;2023-08-20T04:06:25;18.60;99.90
5940;DHT22;2995;-31.998;115.906;2023-08-20T04:08:56;18.70;99.90
5940;DHT22;2995;-31.998;115.906;2023-08-20T04:11:27;18.70;99.90
5940;DHT22;2995;-31.998;115.906;2023-08-20T04:13:59;18.80;99.90
5940;DHT22;2995;-31.998;115.906;2023-08-20T04:16:32;18.90;99.90
5940;DHT22;2995;-31.998;115.906;2023-08-20T04:19:03;18.80;99.90
5940;DHT22;2995;-31.998;115.906;2023-08-20T04:21:35;18.80;99.90
5940;DHT22;2995;-31.998;115.906;2023-08-20T04:24:06;18.60;99.90
5940;DHT22;2995;-31.998;115.906;2023-08-20T04:26:38;18.80;99.90
5940;DHT22;2995;-31.998;115.906;2023-08-20T04:29:09;19.00;99.90
5940;DHT22;2995;-31.998;115.906;2023-08-20T04:31:42;19.00;99.90
5940;DHT22;2995;-31.998;115.906;2023-08-20T04:34:13;18.90;99.90
5940;DHT22;2995;-31.998;115.906;2023-08-20T04:36:45;18.80;99.90
5940;DHT22;2995;-31.998;115.906;2023-08-20T04:39:16;18.80;99.90
5940;DHT22;2995;-31.998;115.906;2023-08-20T04:41:47;18.90;99.90
5940;DHT22;2995;-31.998;115.906;2023-08-20T04:44:18;18.80;99.90
5940;DHT22;2995;-31.998;115.906;2023-08-20T04:46:51;18.80;99.90
5940;DHT22;2995;-31.998;115.906;2023-08-20T04:49:23;18.70;99.90
5940;DHT22;2995;-31.998;115.906;2023-08-20T04:51:56;18.60;99.90
5940;DHT22;2995;-31.998;115.906;2023-08-20T04:54:27;18.70;99.90
5940;DHT22;2995;-31.998;115.906;2023-08-20T04:56:58;18.60;99.90
5940;DHT22;2995;-31.998;115.906;2023-08-20T04:59:30;18.60;99.90
5940;DHT22;2995;-31.998;115.906;2023-08-20T05:02:03;18.40;99.90
5940;DHT22;2995;-31.998;115.906;2023-08-20T05:04:34;18.40;99.90
5940;DHT22;2995;-31.998;115.906;2023-08-20T05:07:06;18.40;99.90
5940;DHT22;2995;-31.998;115.906;2023-08-20T05:09:37;18.50;99.90
5940;DHT22;2995;-31.998;115.906;2023-08-20T05:12:09;18.50;99.90
5940;DHT22;2995;-31.998;115.906;2023-08-20T05:14:40;18.60;99.90
5940;DHT22;2995;-31.998;115.906;2023-08-20T05:17:14;18.60;99.90
5940;DHT22;2995;-31.998;115.906;2023-08-20T05:19:45;18.50;99.90
5940;DHT22;2995;-31.998;115.906;2023-08-20T05:22:16;18.50;99.90
5940;DHT22;2995;-31.998;115.906;2023-08-20T05:24:47;18.40;99.90
5940;DHT22;2995;-31.998;115.906;2023-08-20T05:27:18;18.50;99.90
5940;DHT22;2995;-31.998;115.906;2023-08-20T05:29:50;18.60;99.90
5940;DHT22;2995;-31.998;115.906;2023-08-20T05:32:23;18.50;99.90
5940;DHT22;2995;-31.998;115.906;2023-08-20T05:34:54;18.50;99.90
5940;DHT22;2995;-31.998;115.906;2023-08-20T05:37:26;18.40;99.90
5940;DHT22;2995;-31.998;115.906;2023-08-20T05:39:57;18.50;99.90
5940;DHT22;2995;-31.998;115.906;2023-08-20T05:42:29;18.60;99.90
5940;DHT22;2995;-31.998;115.906;2023-08-20T05:45:00;18.50;99.90
5940;DHT22;2995;-31.998;115.906;2023-08-20T05:47:33;18.50;99.90
5940;DHT22;2995;-31.998;115.906;2023-08-20T05:50:04;18.60;99.90
5940;DHT22;2995;-31.998;115.906;2023-08-20T05:52:36;18.60;99.90
5940;DHT22;2995;-31.998;115.906;2023-08-20T05:55:07;18.80;99.90
5940;DHT22;2995;-31.998;115.906;2023-08-20T05:57:39;18.90;99.90
5940;DHT22;2995;-31.998;115.906;2023-08-20T06:00:11;19.00;99.90
5940;DHT22;2995;-31.998;115.906;2023-08-20T06:02:45;19.00;99.90
5940;DHT22;2995;-31.998;115.906;2023-08-20T06:05:16;19.00;99.90
5940;DHT22;2995;-31.998;115.906;2023-08-20T06:07:47;18.70;99.90
5940;DHT22;2995;-31.998;115.906;2023-08-20T06:10:18;18.90;99.90
5940;DHT22;2995;-31.998;115.906;2023-08-20T06:12:50;18.90;99.90
5940;DHT22;2995;-31.998;115.906;2023-08-20T06:15:21;19.10;99.90
5940;DHT22;2995;-31.998;115.906;2023-08-20T06:17:54;19.20;99.90
5940;DHT22;2995;-31.998;115.906;2023-08-20T06:20:25;19.10;99.90
5940;DHT22;2995;-31.998;115.906;2023-08-20T06:22:57;19.30;99.90
5940;DHT22;2995;-31.998;115.906;2023-08-20T06:25:28;19.40;99.90
5940;DHT22;2995;-31.998;115.906;2023-08-20T06:27:59;19.40;99.90
5940;DHT22;2995;-31.998;115.906;2023-08-20T06:30:30;19.20;99.90
5940;DHT22;2995;-31.998;115.906;2023-08-20T06:33:03;19.10;99.90
5940;DHT22;2995;-31.998;115.906;2023-08-20T06:35:35;19.20;99.90
5940;DHT22;2995;-31.998;115.906;2023-08-20T06:38:06;19.30;99.90
5940;DHT22;2995;-31.998;115.906;2023-08-20T06:40:37;19.40;99.90
5940;DHT22;2995;-31.998;115.906;2023-08-20T06:43:09;19.40;99.90
5940;DHT22;2995;-31.998;115.906;2023-08-20T06:45:40;19.20;99.90
5940;DHT22;2995;-31.998;115.906;2023-08-20T06:48:14;19.20;99.90
5940;DHT22;2995;-31.998;115.906;2023-08-20T06:50:47;19.20;99.90
5940;DHT22;2995;-31.998;115.906;2023-08-20T06:53:19;19.10;99.90
5940;DHT22;2995;-31.998;115.906;2023-08-20T06:55:50;19.10;99.90
5940;DHT22;2995;-31.998;115.906;2023-08-20T06:58:21;18.90;99.90
5940;DHT22;2995;-31.998;115.906;2023-08-20T07:00:52;19.00;99.90
5940;DHT22;2995;-31.998;115.906;2023-08-20T07:03:25;19.00;99.90
5940;DHT22;2995;-31.998;115.906;2023-08-20T07:05:57;19.10;99.90
5940;DHT22;2995;-31.998;115.906;2023-08-20T07:08:28;19.00;99.90
5940;DHT22;2995;-31.998;115.906;2023-08-20T07:10:59;19.00;99.90
5940;DHT22;2995;-31.998;115.906;2023-08-20T07:13:30;19.00;99.90
5940;DHT22;2995;-31.998;115.906;2023-08-20T07:16:02;19.00;99.90
5940;DHT22;2995;-31.998;115.906;2023-08-20T07:18:35;19.10;99.90
5940;DHT22;2995;-31.998;115.906;2023-08-20T07:21:06;18.80;99.90
5940;DHT22;2995;-31.998;115.906;2023-08-20T07:23:38;18.80;99.90
5940;DHT22;2995;-31.998;115.906;2023-08-20T07:26:10;18.80;99.90
5940;DHT22;2995;-31.998;115.906;2023-08-20T07:28:42;18.80;99.90
5940;DHT22;2995;-31.998;115.906;2023-08-20T07:31:29;18.70;99.90
5940;DHT22;2995;-31.998;115.906;2023-08-20T07:34:02;18.70;99.90
5940;DHT22;2995;-31.998;115.906;2023-08-20T07:36:33;18.60;99.90
5940;DHT22;2995;-31.998;115.906;2023-08-20T07:39:05;18.50;99.90
5940;DHT22;2995;-31.998;115.906;2023-08-20T07:41:36;18.40;99.90
5940;DHT22;2995;-31.998;115.906;2023-08-20T07:44:08;18.50;99.90
5940;DHT22;2995;-31.998;115.906;2023-08-20T07:46:39;18.50;99.90
5940;DHT22;2995;-31.998;115.906;2023-08-20T07:49:12;18.50;99.90
5940;DHT22;2995;-31.998;115.906;2023-08-20T07:51:44;18.60;99.90
5940;DHT22;2995;-31.998;115.906;2023-08-20T07:54:15;18.60;99.90
5940;DHT22;2995;-31.998;115.906;2023-08-20T07:56:46;18.60;99.90
5940;DHT22;2995;-31.998;115.906;2023-08-20T07:59:17;18.50;99.90
5940;DHT22;2995;-31.998;115.906;2023-08-20T08:01:49;18.40;99.90
5940;DHT22;2995;-31.998;115.906;2023-08-20T08:04:22;18.10;99.90
5940;DHT22;2995;-31.998;115.906;2023-08-20T08:06:53;18.10;99.90
5940;DHT22;2995;-31.998;115.906;2023-08-20T08:09:28;18.20;99.90
5940;DHT22;2995;-31.998;115.906;2023-08-20T08:11:59;18.20;99.90
5940;DHT22;2995;-31.998;115.906;2023-08-20T08:14:31;18.20;99.90
5940;DHT22;2995;-31.998;115.906;2023-08-20T08:17:02;18.20;99.90
5940;DHT22;2995;-31.998;115.906;2023-08-20T08:19:35;18.20;99.90
5940;DHT22;2995;-31.998;115.906;2023-08-20T08:22:07;18.30;99.90
5940;DHT22;2995;-31.998;115.906;2023-08-20T08:24:38;18.20;99.90
5940;DHT22;2995;-31.998;115.906;2023-08-20T08:27:10;18.20;99.90
5940;DHT22;2995;-31.998;115.906;2023-08-20T08:29:41;18.10;99.90
5940;DHT22;2995;-31.998;115.906;2023-08-20T08:32:12;18.20;99.90
5940;DHT22;2995;-31.998;115.906;2023-08-20T08:34:46;18.10;99.90
5940;DHT22;2995;-31.998;115.906;2023-08-20T08:37:17;18.00;99.90
5940;DHT22;2995;-31.998;115.906;2023-08-20T08:39:48;18.00;99.90
5940;DHT22;2995;-31.998;115.906;2023-08-20T08:42:21;18.00;99.90
5940;DHT22;2995;-31.998;115.906;2023-08-20T08:44:53;17.90;99.90
5940;DHT22;2995;-31.998;115.906;2023-08-20T08:47:26;17.80;99.90
5940;DHT22;2995;-31.998;115.906;2023-08-20T08:49:59;17.90;99.90
5940;DHT22;2995;-31.998;115.906;2023-08-20T08:52:31;17.80;99.90
5940;DHT22;2995;-31.998;115.906;2023-08-20T08:55:04;17.70;99.90
5940;DHT22;2995;-31.998;115.906;2023-08-20T08:57:36;17.60;99.90
5940;DHT22;2995;-31.998;115.906;2023-08-20T09:00:08;17.50;99.90
5940;DHT22;2995;-31.998;115.906;2023-08-20T09:02:40;17.50;99.90
5940;DHT22;2995;-31.998;115.906;2023-08-20T09:05:14;17.50;99.90
5940;DHT22;2995;-31.998;115.906;2023-08-20T09:07:45;17.40;99.90
5940;DHT22;2995;-31.998;115.906;2023-08-20T09:10:18;17.40;99.90
5940;DHT22;2995;-31.998;115.906;2023-08-20T09:12:49;17.40;99.90
5940;DHT22;2995;-31.998;115.906;2023-08-20T09:15:21;17.40;99.90
5940;DHT22;2995;-31.998;115.906;2023-08-20T09:17:52;17.30;99.90
5940;DHT22;2995;-31.998;115.906;2023-08-20T09:20:37;17.30;99.90
5940;DHT22;2995;-31.998;115.906;2023-08-20T09:23:12;17.20;99.90
5940;DHT22;2995;-31.998;115.906;2023-08-20T09:25:44;17.20;99.90
5940;DHT22;2995;-31.998;115.906;2023-08-20T09:28:16;17.20;99.90
5940;DHT22;2995;-31.998;115.906;2023-08-20T09:31:00;17.10;99.90
5940;DHT22;2995;-31.998;115.906;2023-08-20T09:33:31;17.20;99.90
5940;DHT22;2995;-31.998;115.906;2023-08-20T09:36:05;17.10;99.90
5940;DHT22;2995;-31.998;115.906;2023-08-20T09:38:38;17.20;99.90
5940;DHT22;2995;-31.998;115.906;2023-08-20T09:41:10;17.00;99.90
5940;DHT22;2995;-31.998;115.906;2023-08-20T09:43:42;16.90;99.90
5940;DHT22;2995;-31.998;115.906;2023-08-20T09:46:18;16.80;99.90
5940;DHT22;2995;-31.998;115.906;2023-08-20T09:48:52;16.70;99.90
5940;DHT22;2995;-31.998;115.906;2023-08-20T09:51:28;16.60;99.90
5940;DHT22;2995;-31.998;115.906;2023-08-20T09:54:07;16.60;99.90
5940;DHT22;2995;-31.998;115.906;2023-08-20T09:56:40;16.50;99.90
5940;DHT22;2995;-31.998;115.906;2023-08-20T09:59:15;16.50;99.90
5940;DHT22;2995;-31.998;115.906;2023-08-20T10:01:48;16.50;99.90
5940;DHT22;2995;-31.998;115.906;2023-08-20T10:04:19;16.50;99.90
5940;DHT22;2995;-31.998;115.906;2023-08-20T10:06:54;16.50;99.90
5940;DHT22;2995;-31.998;115.906;2023-08-20T10:09:27;16.50;99.90
5940;DHT22;2995;-31.998;115.906;2023-08-20T10:11:58;16.40;99.90
5940;DHT22;2995;-31.998;115.906;2023-08-20T10:14:30;16.30;99.90
5940;DHT22;2995;-31.998;115.906;2023-08-20T10:17:07;16.20;99.90
5940;DHT22;2995;-31.998;115.906;2023-08-20T10:19:39;16.20;99.90
5940;DHT22;2995;-31.998;115.906;2023-08-20T10:22:13;16.20;99.90
5940;DHT22;2995;-31.998;115.906;2023-08-20T10:24:50;16.10;99.90
5940;DHT22;2995;-31.998;115.906;2023-08-20T10:27:30;16.00;99.90
5940;DHT22;2995;-31.998;115.906;2023-08-20T10:30:02;16.00;99.90
5940;DHT22;2995;-31.998;115.906;2023-08-20T10:32:49;16.00;99.90
5940;DHT22;2995;-31.998;115.906;2023-08-20T10:35:27;15.90;99.90
5940;DHT22;2995;-31.998;115.906;2023-08-20T10:38:08;15.90;99.90
5940;DHT22;2995;-31.998;115.906;2023-08-20T10:40:51;15.80;99.90
5940;DHT22;2995;-31.998;115.906;2023-08-20T10:43:31;15.70;99.90
5940;DHT22;2995;-31.998;115.906;2023-08-20T10:46:14;15.60;99.90
5940;DHT22;2995;-31.998;115.906;2023-08-20T10:48:48;15.60;99.90
5940;DHT22;2995;-31.998;115.906;2023-08-20T10:51:24;15.50;99.90
5940;DHT22;2995;-31.998;115.906;2023-08-20T10:54:07;15.50;99.90
5940;DHT22;2995;-31.998;115.906;2023-08-20T10:56:42;15.30;99.90
5940;DHT22;2995;-31.998;115.906;2023-08-20T10:59:17;15.30;99.90
5940;DHT22;2995;-31.998;115.906;2023-08-20T11:01:52;15.20;99.90
5940;DHT22;2995;-31.998;115.906;2023-08-20T11:04:24;15.10;99.90
5940;DHT22;2995;-31.998;115.906;2023-08-20T11:06:56;15.10;99.90
5940;DHT22;2995;-31.998;115.906;2023-08-20T11:09:31;15.10;99.90
5940;DHT22;2995;-31.998;115.906;2023-08-20T11:12:03;15.00;99.90
5940;DHT22;2995;-31.998;115.906;2023-08-20T11:14:36;14.90;99.90
5940;DHT22;2995;-31.998;115.906;2023-08-20T11:17:08;14.90;99.90
5940;DHT22;2995;-31.998;115.906;2023-08-20T11:19:39;14.90;99.90
5940;DHT22;2995;-31.998;115.906;2023-08-20T11:22:10;14.90;99.90
5940;DHT22;2995;-31.998;115.906;2023-08-20T11:24:46;14.90;99.90
5940;DHT22;2995;-31.998;115.906;2023-08-20T11:27:18;14.90;99.90
5940;DHT22;2995;-31.998;115.906;2023-08-20T11:29:49;14.90;99.90
5940;DHT22;2995;-31.998;115.906;2023-08-20T11:32:21;14.90;99.90
5940;DHT22;2995;-31.998;115.906;2023-08-20T11:34:54;14.90;99.90
5940;DHT22;2995;-31.998;115.906;2023-08-20T11:37:26;14.90;99.90
5940;DHT22;2995;-31.998;115.906;2023-08-20T11:40:00;14.90;99.90
5940;DHT22;2995;-31.998;115.906;2023-08-20T11:42:31;15.00;99.90
5940;DHT22;2995;-31.998;115.906;2023-08-20T11:45:02;15.00;99.90
5940;DHT22;2995;-31.998;115.906;2023-08-20T11:47:40;15.00;99.90
5940;DHT22;2995;-31.998;115.906;2023-08-20T11:50:12;15.00;99.90
5940;DHT22;2995;-31.998;115.906;2023-08-20T11:52:43;14.90;99.90
5940;DHT22;2995;-31.998;115.906;2023-08-20T11:55:23;15.00;99.90
5940;DHT22;2995;-31.998;115.906;2023-08-20T11:57:54;14.90;99.90
5940;DHT22;2995;-31.998;115.906;2023-08-20T12:00:29;14.90;99.90
5940;DHT22;2995;-31.998;115.906;2023-08-20T12:03:01;14.80;99.90
5940;DHT22;2995;-31.998;115.906;2023-08-20T12:05:33;14.80;99.90
5940;DHT22;2995;-31.998;115.906;2023-08-20T12:08:05;14.70;99.90
5940;DHT22;2995;-31.998;115.906;2023-08-20T12:10:43;14.70;99.90
5940;DHT22;2995;-31.998;115.906;2023-08-20T12:13:14;14.60;99.90
5940;DHT22;2995;-31.998;115.906;2023-08-20T12:15:46;14.60;99.90
5940;DHT22;2995;-31.998;115.906;2023-08-20T12:18:17;14.50;99.90
5940;DHT22;2995;-31.998;115.906;2023-08-20T12:20:49;14.50;99.90
5940;DHT22;2995;-31.998;115.906;2023-08-20T12:23:20;14.50;99.90
5940;DHT22;2995;-31.998;115.906;2023-08-20T12:25:54;14.50;99.90
5940;DHT22;2995;-31.998;115.906;2023-08-20T12:28:25;14.60;99.90
5940;DHT22;2995;-31.998;115.906;2023-08-20T12:30:56;14.60;99.90
5940;DHT22;2995;-31.998;115.906;2023-08-20T12:33:27;14.60;99.90
5940;DHT22;2995;-31.998;115.906;2023-08-20T12:35:59;14.60;99.90
5940;DHT22;2995;-31.998;115.906;2023-08-20T12:38:30;14.70;99.90
5940;DHT22;2995;-31.998;115.906;2023-08-20T12:41:04;14.70;99.90
5940;DHT22;2995;-31.998;115.906;2023-08-20T12:43:35;14.70;99.90
5940;DHT22;2995;-31.998;115.906;2023-08-20T12:46:07;14.70;99.90
5940;DHT22;2995;-31.998;115.906;2023-08-20T12:48:38;14.70;99.90
5940;DHT22;2995;-31.998;115.906;2023-08-20T12:51:10;14.70;99.90
5940;DHT22;2995;-31.998;115.906;2023-08-20T12:53:42;14.60;99.90
5940;DHT22;2995;-31.998;115.906;2023-08-20T12:56:15;14.60;99.90
5940;DHT22;2995;-31.998;115.906;2023-08-20T12:58:47;14.60;99.90
5940;DHT22;2995;-31.998;115.906;2023-08-20T13:01:18;14.60;99.90
5940;DHT22;2995;-31.998;115.906;2023-08-20T13:03:50;14.50;99.90
5940;DHT22;2995;-31.998;115.906;2023-08-20T13:06:22;14.50;99.90
5940;DHT22;2995;-31.998;115.906;2023-08-20T13:08:54;14.50;99.90
5940;DHT22;2995;-31.998;115.906;2023-08-20T13:11:29;14.40;99.90
5940;DHT22;2995;-31.998;115.906;2023-08-20T13:14:01;14.40;99.90
5940;DHT22;2995;-31.998;115.906;2023-08-20T13:16:32;14.40;99.90
5940;DHT22;2995;-31.998;115.906;2023-08-20T13:19:04;14.30;99.90
5940;DHT22;2995;-31.998;115.906;2023-08-20T13:21:36;14.30;99.90
5940;DHT22;2995;-31.998;115.906;2023-08-20T13:24:07;14.30;99.90
5940;DHT22;2995;-31.998;115.906;2023-08-20T13:26:41;14.20;99.90
5940;DHT22;2995;-31.998;115.906;2023-08-20T13:29:12;14.20;99.90
5940;DHT22;2995;-31.998;115.906;2023-08-20T13:31:44;14.20;99.90
5940;DHT22;2995;-31.998;115.906;2023-08-20T13:34:15;14.20;99.90
5940;DHT22;2995;-31.998;115.906;2023-08-20T13:36:46;14.20;99.90
5940;DHT22;2995;-31.998;115.906;2023-08-20T13:39:18;14.10;99.90
5940;DHT22;2995;-31.998;115.906;2023-08-20T13:41:51;14.10;99.90
5940;DHT22;2995;-31.998;115.906;2023-08-20T13:44:23;14.20;99.90
5940;DHT22;2995;-31.998;115.906;2023-08-20T13:46:54;14.30;99.90
5940;DHT22;2995;-31.998;115.906;2023-08-20T13:49:25;14.30;99.90
5940;DHT22;2995;-31.998;115.906;2023-08-20T13:51:57;14.30;99.90
5940;DHT22;2995;-31.998;115.906;2023-08-20T13:54:28;14.20;99.90
5940;DHT22;2995;-31.998;115.906;2023-08-20T13:57:01;14.20;99.90
5940;DHT22;2995;-31.998;115.906;2023-08-20T13:59:33;14.20;99.90
5940;DHT22;2995;-31.998;115.906;2023-08-20T14:02:05;14.20;99.90
5940;DHT22;2995;-31.998;115.906;2023-08-20T14:04:37;14.10;99.90
5940;DHT22;2995;-31.998;115.906;2023-08-20T14:07:08;14.10;99.90
5940;DHT22;2995;-31.998;115.906;2023-08-20T14:09:39;14.10;99.90
5940;DHT22;2995;-31.998;115.906;2023-08-20T14:12:12;14.00;99.90
5940;DHT22;2995;-31.998;115.906;2023-08-20T14:14:44;14.00;99.90
5940;DHT22;2995;-31.998;115.906;2023-08-20T14:17:15;14.00;99.90
5940;DHT22;2995;-31.998;115.906;2023-08-20T14:19:46;13.90;99.90
5940;DHT22;2995;-31.998;115.906;2023-08-20T14:22:18;13.90;99.90
5940;DHT22;2995;-31.998;115.906;2023-08-20T14:24:50;13.80;99.90
5940;DHT22;2995;-31.998;115.906;2023-08-20T14:27:23;13.70;99.90
5940;DHT22;2995;-31.998;115.906;2023-08-20T14:29:54;13.80;99.90
5940;DHT22;2995;-31.998;115.906;2023-08-20T14:32:25;13.80;99.90
5940;DHT22;2995;-31.998;115.906;2023-08-20T14:34:57;13.70;99.90
5940;DHT22;2995;-31.998;115.906;2023-08-20T14:37:28;13.80;99.90
5940;DHT22;2995;-31.998;115.906;2023-08-20T14:39:59;14.00;99.90
5940;DHT22;2995;-31.998;115.906;2023-08-20T14:42:35;14.00;99.90
5940;DHT22;2995;-31.998;115.906;2023-08-20T14:45:08;14.10;99.90
5940;DHT22;2995;-31.998;115.906;2023-08-20T14:47:39;14.00;99.90
5940;DHT22;2995;-31.998;115.906;2023-08-20T14:50:10;13.90;99.90
5940;DHT22;2995;-31.998;115.906;2023-08-20T14:52:42;13.90;99.90
5940;DHT22;2995;-31.998;115.906;2023-08-20T14:55:13;13.90;99.90
5940;DHT22;2995;-31.998;115.906;2023-08-20T14:57:47;13.90;99.90
5940;DHT22;2995;-31.998;115.906;2023-08-20T15:00:18;13.90;99.90
5940;DHT22;2995;-31.998;115.906;2023-08-20T15:02:50;13.90;99.90
5940;DHT22;2995;-31.998;115.906;2023-08-20T15:05:22;13.80;99.90
5940;DHT22;2995;-31.998;115.906;2023-08-20T15:07:53;13.70;99.90
5940;DHT22;2995;-31.998;115.906;2023-08-20T15:10:24;13.70;99.90
5940;DHT22;2995;-31.998;115.906;2023-08-20T15:12:57;13.70;99.90
5940;DHT22;2995;-31.998;115.906;2023-08-20T15:15:28;13.60;99.90
5940;DHT22;2995;-31.998;115.906;2023-08-20T15:18:00;13.70;99.90
5940;DHT22;2995;-31.998;115.906;2023-08-20T15:20:31;13.70;99.90
5940;DHT22;2995;-31.998;115.906;2023-08-20T15:23:02;13.60;99.90
5940;DHT22;2995;-31.998;115.906;2023-08-20T15:25:33;13.70;99.90
5940;DHT22;2995;-31.998;115.906;2023-08-20T15:28:07;13.60;99.90
5940;DHT22;2995;-31.998;115.906;2023-08-20T15:30:39;13.60;99.90
5940;DHT22;2995;-31.998;115.906;2023-08-20T15:33:10;13.60;99.90
5940;DHT22;2995;-31.998;115.906;2023-08-20T15:35:42;13.50;99.90
5940;DHT22;2995;-31.998;115.906;2023-08-20T15:38:13;13.40;99.90
5940;DHT22;2995;-31.998;115.906;2023-08-20T15:40:44;13.40;99.90
5940;DHT22;2995;-31.998;115.906;2023-08-20T15:43:17;13.40;99.90
5940;DHT22;2995;-31.998;115.906;2023-08-20T15:45:49;13.50;99.90
5940;DHT22;2995;-31.998;115.906;2023-08-20T15:48:21;13.40;99.90